Nadi, Fiji
Current Conditions -  °F | °C
As of 10:00 AM on Monday 26 Jan 2015 (Local Time) from NFFN Reporting Station
Scattered Clouds Scattered Clouds  
Wind Chill: 86°   Ceiling: Unl
Heat Index: 92°   Visibility: 6mi
Dew Point: 72°   Wind: 6mph
Humidity: 62%   Direction: 100°E
Pressure: 29.62"   Gusts: NA
Location:  17.8°S, 177.42°E
Report Text: NFFN 252200Z 10005KT 9999 FEW030 SCT050 30/22 Q1003 NOSIG
Loading
Personal Weather Stations






























Interactive Weather Map New forecast layout! Learn more

10-Day Weather Forecast

Advertisements
Track Severe Weather on mobile